Time;durP1;ratioP1;P1;durP2;ratioP2;P2;SDS_P1;SDS_P2;PMS_P1;PMS_P2;Temp;Humidity;BMP_temperature;BMP_pressure;BME280_temperature;BME280_humidity;BME280_pressure;Samples;Min_cycle;Max_cycle;Signal;HPM_P1;HPM_P2
2023/07/31 00:02:19;;;;;;;4.47;1.60;;;;;;;16.41;69.60;98782.75;4962453;28;20721;-64
2023/07/31 00:04:46;;;;;;;6.10;1.77;;;;;;;16.52;70.25;98774.34;4965492;28;20252;-64
2023/07/31 00:07:12;;;;;;;5.77;1.67;;;;;;;16.43;69.94;98777.28;4962874;28;20242;-64
2023/07/31 00:09:40;;;;;;;4.73;1.67;;;;;;;16.39;70.14;98779.47;4964575;28;20241;-64
2023/07/31 00:12:08;;;;;;;4.50;1.47;;;;;;;16.46;69.59;98775.06;4965595;28;20705;-64
2023/07/31 00:14:34;;;;;;;6.73;1.70;;;;;;;16.40;70.65;98777.66;4962365;28;20239;-64
2023/07/31 00:17:02;;;;;;;4.10;1.57;;;;;;;16.38;71.21;98769.94;4956327;28;20230;-63
2023/07/31 00:19:30;;;;;;;6.53;2.07;;;;;;;16.36;71.80;98775.38;4963753;28;20721;-63
2023/07/31 00:21:56;;;;;;;5.17;1.70;;;;;;;16.27;73.64;98771.22;4965055;28;20276;-63
2023/07/31 00:24:23;;;;;;;4.87;1.47;;;;;;;16.37;70.72;98755.94;4961828;28;20238;-63
2023/07/31 00:26:51;;;;;;;4.00;2.00;;;;;;;16.31;72.43;98759.31;4966065;28;20233;-63
2023/07/31 00:29:17;;;;;;;6.87;1.93;;;;;;;16.14;76.78;98760.50;4961332;28;20762;-63
2023/07/31 00:31:44;;;;;;;4.57;1.50;;;;;;;15.93;78.27;98755.00;4965564;28;20234;-63
2023/07/31 00:34:11;;;;;;;7.00;1.60;;;;;;;15.77;80.82;98758.63;4962858;28;20236;-63
2023/07/31 00:36:37;;;;;;;4.63;1.67;;;;;;;15.67;80.11;98751.97;4964272;28;20317;-63
2023/07/31 00:39:04;;;;;;;3.13;1.70;;;;;;;15.50;80.33;98750.34;4965821;28;20230;-63
2023/07/31 00:41:31;;;;;;;6.70;1.97;;;;;;;15.60;77.96;98747.44;4961195;28;20237;-63
2023/07/31 00:43:59;;;;;;;6.00;1.90;;;;;;;15.78;75.26;98748.88;4963363;28;20242;-63
2023/07/31 00:46:25;;;;;;;2.60;1.20;;;;;;;15.98;73.21;98748.38;4962187;28;20581;-63
2023/07/31 00:48:52;;;;;;;3.73;1.50;;;;;;;15.82;76.50;98750.16;4963870;28;20657;-63
2023/07/31 00:51:18;;;;;;;8.10;1.77;;;;;;;15.79;74.50;98747.91;4960851;28;20672;-64
2023/07/31 00:53:46;;;;;;;5.00;1.53;;;;;;;15.86;73.63;98748.81;4963755;28;20237;-64
2023/07/31 00:56:13;;;;;;;7.40;1.77;;;;;;;15.85;75.32;98741.91;4960439;28;20235;-64
2023/07/31 00:58:40;;;;;;;5.10;1.70;;;;;;;15.83;73.43;98741.28;4964460;28;20229;-63
2023/07/31 01:01:12;;;;;;;6.57;1.63;;;;;;;15.75;76.15;98736.94;4963086;28;20296;-63
2023/07/31 01:03:40;;;;;;;5.37;2.07;;;;;;;15.65;76.38;98737.19;4973156;28;20239;-63
2023/07/31 01:06:16;;;;;;;5.03;2.20;;;;;;;15.59;78.58;98734.47;4955567;28;20593;-63
2023/07/31 01:08:50;;;;;;;2.80;1.30;;;;;;;15.58;75.90;98730.19;4962115;28;20344;-63
2023/07/31 01:11:20;;;;;;;4.37;1.50;;;;;;;15.81;73.55;98732.72;4954423;28;20756;-63
2023/07/31 01:13:47;;;;;;;6.63;1.60;;;;;;;15.88;71.73;98732.88;4964161;28;20315;-62
2023/07/31 01:16:15;;;;;;;7.50;1.70;;;;;;;16.25;70.44;98727.63;4960376;28;20222;-63
2023/07/31 01:18:42;;;;;;;4.27;1.33;;;;;;;16.11;71.35;98726.66;4963726;28;20226;-63
2023/07/31 01:21:24;;;;;;;6.00;1.90;;;;;;;15.91;74.79;98733.31;4966870;28;20241;-63
2023/07/31 01:24:11;;;;;;;5.60;1.63;;;;;;;15.73;77.06;98736.28;4965225;28;20232;-63
2023/07/31 01:26:40;;;;;;;3.60;2.03;;;;;;;15.57;76.83;98732.00;4964300;28;20252;-63
2023/07/31 01:29:15;;;;;;;3.23;1.40;;;;;;;15.51;76.47;98719.56;4968497;28;20585;-62
2023/07/31 01:31:45;;;;;;;9.23;1.73;;;;;;;15.52;75.89;98729.09;4965865;28;20240;-62
2023/07/31 01:34:13;;;;;;;3.27;1.50;;;;;;;15.53;77.03;98729.94;4976716;28;20232;-62
2023/07/31 01:36:40;;;;;;;9.43;2.00;;;;;;;15.39;77.88;98724.47;4967411;28;20226;-63
2023/07/31 01:39:07;;;;;;;7.03;1.90;;;;;;;15.31;79.81;98720.13;4966696;28;20229;-63
2023/07/31 01:41:34;;;;;;;4.83;2.00;;;;;;;15.48;75.83;98717.28;4963059;28;20241;-63
2023/07/31 01:44:02;;;;;;;4.30;1.90;;;;;;;15.72;73.55;98715.41;4979814;28;20229;-63
2023/07/31 01:46:29;;;;;;;4.63;1.70;;;;;;;15.73;74.65;98717.03;4963587;28;20232;-63
2023/07/31 01:48:56;;;;;;;6.90;2.00;;;;;;;15.67;73.06;98715.13;4966478;28;20254;-63
2023/07/31 01:51:24;;;;;;;8.10;2.37;;;;;;;15.66;74.93;98711.69;4964595;28;20743;-63
2023/07/31 01:53:51;;;;;;;7.50;2.33;;;;;;;15.54;77.65;98706.06;4965690;28;20318;-63
2023/07/31 01:56:17;;;;;;;3.67;1.70;;;;;;;15.55;76.02;98707.69;4963347;28;20237;-63
2023/07/31 01:58:44;;;;;;;6.10;1.90;;;;;;;15.60;75.87;98705.34;4966754;28;20630;-63
2023/07/31 02:01:12;;;;;;;3.97;1.97;;;;;;;15.68;75.26;98700.97;4965719;28;20713;-63
2023/07/31 02:03:39;;;;;;;6.13;1.50;;;;;;;15.77;73.12;98700.72;4965016;28;20248;-63
2023/07/31 02:06:05;;;;;;;5.33;1.53;;;;;;;15.94;72.02;98688.19;4968132;28;20240;-63
2023/07/31 02:08:32;;;;;;;5.27;1.87;;;;;;;15.94;71.08;98687.34;4963985;28;20238;-63
2023/07/31 02:10:59;;;;;;;2.93;1.70;;;;;;;15.90;72.51;98683.50;4966911;28;20308;-63
2023/07/31 02:13:25;;;;;;;5.57;1.53;;;;;;;15.88;72.22;98681.03;4963131;28;20246;-63
2023/07/31 02:15:52;;;;;;;8.53;1.90;;;;;;;15.91;72.22;98678.03;4967924;28;20284;-63
2023/07/31 02:18:20;;;;;;;3.43;1.70;;;;;;;15.88;72.51;98681.03;4963464;28;20253;-63
2023/07/31 02:20:50;;;;;;;3.10;1.57;;;;;;;15.88;73.84;98680.22;4967643;28;20237;-63
2023/07/31 02:23:17;;;;;;;3.77;1.73;;;;;;;15.86;73.30;98676.94;4964876;28;20685;-63
2023/07/31 02:25:44;;;;;;;5.13;1.83;;;;;;;15.90;73.04;98672.97;4967811;28;20284;-63
2023/07/31 02:28:10;;;;;;;5.80;1.73;;;;;;;15.89;74.95;98669.50;4965332;28;20283;-63
2023/07/31 02:30:37;;;;;;;5.43;1.90;;;;;;;15.84;76.37;98661.31;4965647;28;20673;-63
2023/07/31 02:33:04;;;;;;;4.73;1.70;;;;;;;15.77;75.79;98655.16;4967202;28;20236;-63
2023/07/31 02:35:32;;;;;;;4.27;1.70;;;;;;;15.83;73.32;98651.78;4963701;28;20788;-63
2023/07/31 02:37:59;;;;;;;5.83;1.63;;;;;;;15.92;72.10;98650.72;4966165;28;20679;-63
2023/07/31 02:40:25;;;;;;;5.77;2.03;;;;;;;15.88;74.61;98659.16;4964884;28;20251;-63
2023/07/31 02:42:52;;;;;;;7.07;1.93;;;;;;;15.78;76.82;98657.59;4967459;28;20295;-63
2023/07/31 02:45:19;;;;;;;5.27;1.93;;;;;;;15.79;75.71;98650.50;4963318;28;20234;-63
2023/07/31 02:47:45;;;;;;;4.07;1.83;;;;;;;15.81;75.14;98660.88;4966086;28;20233;-63
2023/07/31 02:50:12;;;;;;;3.23;1.60;;;;;;;15.84;73.54;98663.13;4963136;28;20262;-63
2023/07/31 02:52:40;;;;;;;4.80;1.90;;;;;;;15.92;72.48;98657.78;4952991;28;20254;-63
2023/07/31 02:55:07;;;;;;;6.33;1.90;;;;;;;16.07;71.69;98655.13;4965545;28;20244;-63
2023/07/31 02:57:34;;;;;;;6.63;1.80;;;;;;;16.23;70.07;98656.69;4962767;28;20269;-63
2023/07/31 03:00:00;;;;;;;4.40;1.53;;;;;;;16.24;71.32;98660.97;4952605;28;20300;-63
2023/07/31 03:05:10;;;;;;;6.80;2.00;;;;;;;16.28;69.71;98664.84;5048872;23;20212;-62
2023/07/31 03:07:37;;;;;;;5.47;1.97;;;;;;;16.37;70.14;98665.56;4989768;28;20233;-62
2023/07/31 03:10:06;;;;;;;7.43;2.13;;;;;;;16.33;71.25;98669.59;5002143;28;20224;-62
2023/07/31 03:12:32;;;;;;;3.90;1.87;;;;;;;16.38;71.02;98662.72;5006984;28;20228;-63
2023/07/31 03:14:59;;;;;;;3.70;1.70;;;;;;;16.42;69.73;98665.81;5003984;28;20233;-63
2023/07/31 03:17:25;;;;;;;4.73;1.70;;;;;;;16.46;70.11;98668.88;4985672;28;20244;-63
2023/07/31 03:19:55;;;;;;;4.57;2.13;;;;;;;16.40;69.82;98661.72;4993434;28;20236;-63
2023/07/31 03:22:22;;;;;;;4.20;1.67;;;;;;;16.52;69.52;98660.22;4993311;28;20658;-63
2023/07/31 03:25:15;;;;;;;6.63;1.80;;;;;;;16.41;68.32;98647.56;4990032;28;20397;-63
2023/07/31 03:27:41;;;;;;;9.03;1.93;;;;;;;16.35;69.57;98654.41;4990086;28;20720;-63
2023/07/31 03:32:52;;;;;;;5.30;1.87;;;;;;;16.22;70.20;98661.16;5072057;23;20249;-63
2023/07/31 03:35:19;;;;;;;6.10;2.20;;;;;;;16.21;70.09;98654.28;4989026;28;20235;-63
2023/07/31 03:37:45;;;;;;;3.77;1.90;;;;;;;16.15;71.07;98651.53;4991141;28;20245;-63
2023/07/31 03:40:12;;;;;;;5.27;2.23;;;;;;;16.10;70.43;98662.66;4988678;28;20754;-63
2023/07/31 03:42:40;;;;;;;3.23;1.77;;;;;;;16.14;70.38;98660.44;4991574;28;20705;-63
2023/07/31 03:45:08;;;;;;;4.67;2.03;;;;;;;16.11;70.89;98661.66;5000132;28;20259;-63
2023/07/31 03:47:35;;;;;;;4.33;1.70;;;;;;;16.26;69.95;98666.88;5005028;28;20237;-63
2023/07/31 03:50:03;;;;;;;5.57;1.50;;;;;;;16.25;69.75;98646.00;4995209;28;20233;-63
2023/07/31 03:52:30;;;;;;;9.17;1.90;;;;;;;16.28;70.42;98643.78;4989219;28;20247;-63
2023/07/31 03:54:57;;;;;;;2.80;1.47;;;;;;;16.33;69.02;98653.78;4994186;28;20284;-63
2023/07/31 03:57:23;;;;;;;7.13;1.87;;;;;;;16.38;69.01;98654.03;4983911;28;20229;-63
2023/07/31 03:59:56;;;;;;;3.40;1.73;;;;;;;16.40;68.08;98657.28;4992245;28;20622;-63
2023/07/31 04:02:23;;;;;;;4.30;1.60;;;;;;;16.50;67.03;98660.41;4993076;28;20235;-63
2023/07/31 04:04:55;;;;;;;5.03;1.70;;;;;;;16.46;67.96;98669.69;4994590;28;20255;-63
2023/07/31 04:07:22;;;;;;;4.63;1.43;;;;;;;16.43;68.15;98667.44;4989862;28;20233;-63
2023/07/31 04:09:53;;;;;;;8.33;2.10;;;;;;;16.55;66.97;98673.03;4992905;28;20272;-63
2023/07/31 04:12:19;;;;;;;6.43;1.70;;;;;;;16.56;66.81;98669.38;4991803;28;20240;-63
2023/07/31 04:14:46;;;;;;;4.40;1.83;;;;;;;16.65;67.73;98668.25;4991970;28;20239;-63
2023/07/31 04:17:14;;;;;;;7.90;1.77;;;;;;;16.61;66.18;98664.38;4991899;28;20235;-63
2023/07/31 04:19:40;;;;;;;5.70;1.97;;;;;;;16.75;66.28;98660.03;4993433;28;20221;-63
2023/07/31 04:22:07;;;;;;;6.23;1.67;;;;;;;16.75;65.69;98660.03;4989545;28;20589;-63
2023/07/31 04:24:33;;;;;;;3.47;1.47;;;;;;;16.87;64.99;98659.50;4991372;28;20236;-63
2023/07/31 04:27:00;;;;;;;5.87;1.97;;;;;;;16.84;66.12;98668.63;4994022;28;20231;-63
2023/07/31 04:29:26;;;;;;;5.90;1.73;;;;;;;16.85;66.66;98658.88;4992970;28;20284;-63
2023/07/31 04:31:53;;;;;;;8.30;2.33;;;;;;;16.86;64.98;98647.31;4995918;28;20642;-63
2023/07/31 04:34:21;;;;;;;5.27;1.77;;;;;;;16.85;66.64;98650.97;4993772;28;20222;-63
2023/07/31 04:36:47;;;;;;;7.63;2.07;;;;;;;16.85;66.73;98651.81;4994685;28;20244;-63
2023/07/31 04:39:14;;;;;;;5.03;1.90;;;;;;;16.88;66.29;98654.06;4992336;28;20272;-63
2023/07/31 04:41:40;;;;;;;4.17;1.83;;;;;;;16.96;65.93;98645.19;4994751;28;20234;-63
2023/07/31 04:44:07;;;;;;;8.67;2.03;;;;;;;17.00;65.69;98638.53;4992137;28;20644;-63
2023/07/31 04:46:33;;;;;;;7.60;1.90;;;;;;;17.03;66.26;98642.59;4991732;28;20681;-63
2023/07/31 04:49:01;;;;;;;5.70;1.60;;;;;;;17.05;66.30;98644.06;4992930;28;20311;-63
2023/07/31 04:51:28;;;;;;;6.43;1.87;;;;;;;17.11;66.91;98647.75;4990844;28;20234;-63
2023/07/31 04:53:55;;;;;;;3.87;1.87;;;;;;;17.25;64.15;98644.19;4995081;28;20232;-63
2023/07/31 04:56:21;;;;;;;4.90;1.77;;;;;;;17.38;64.10;98634.72;5002631;28;20233;-63
2023/07/31 04:58:48;;;;;;;8.93;2.03;;;;;;;17.47;65.25;98643.31;4998698;28;20244;-63
2023/07/31 05:01:15;;;;;;;8.40;1.83;;;;;;;17.56;65.45;98650.84;4996735;28;20244;-63
2023/07/31 05:03:41;;;;;;;6.47;1.77;;;;;;;17.56;64.99;98644.75;4994449;28;20310;-63
2023/07/31 05:06:08;;;;;;;7.97;1.70;;;;;;;17.60;65.79;98651.25;4998991;28;20274;-63
2023/07/31 05:08:35;;;;;;;5.50;1.77;;;;;;;17.60;68.12;98661.00;4998560;28;20238;-63
2023/07/31 05:11:03;;;;;;;8.87;2.43;;;;;;;17.65;64.94;98656.75;4998447;28;20237;-63
2023/07/31 05:13:29;;;;;;;6.20;2.10;;;;;;;17.66;67.61;98660.22;4999844;28;20264;-63
2023/07/31 05:15:56;;;;;;;5.67;1.50;;;;;;;17.67;68.06;98652.09;5001664;28;20222;-63
2023/07/31 05:18:23;;;;;;;8.27;2.03;;;;;;;17.70;65.56;98654.34;4997363;28;21142;-63
2023/07/31 05:20:49;;;;;;;8.70;2.00;;;;;;;17.68;65.87;98655.56;4995878;28;20219;-63
2023/07/31 05:23:16;;;;;;;5.83;1.40;;;;;;;17.73;63.86;98647.88;4998130;28;20732;-63
2023/07/31 05:25:43;;;;;;;6.10;1.70;;;;;;;17.74;63.79;98641.59;4997214;28;20240;-63
2023/07/31 05:28:10;;;;;;;9.70;1.67;;;;;;;17.75;63.39;98648.50;4993580;28;20240;-63
2023/07/31 05:30:37;;;;;;;6.97;1.73;;;;;;;17.76;64.21;98649.28;4991813;28;20245;-62
2023/07/31 05:33:03;;;;;;;7.03;1.90;;;;;;;17.74;64.80;98646.03;4997932;28;20240;-62
2023/07/31 05:35:31;;;;;;;4.17;1.70;;;;;;;17.76;65.59;98655.41;4997486;28;20241;-63
2023/07/31 05:37:58;;;;;;;6.43;1.80;;;;;;;17.82;64.76;98657.25;5014331;28;20224;-63
2023/07/31 05:40:24;;;;;;;5.07;1.80;;;;;;;17.78;64.94;98656.03;4997842;28;20220;-63
2023/07/31 05:42:52;;;;;;;7.10;1.83;;;;;;;17.81;64.18;98636.31;4997467;28;20740;-63
2023/07/31 05:45:19;;;;;;;5.73;1.70;;;;;;;17.88;62.99;98647.72;4995162;28;20233;-63
2023/07/31 05:47:45;;;;;;;4.83;1.73;;;;;;;17.95;63.13;98639.84;5000607;28;20259;-63
2023/07/31 05:50:13;;;;;;;6.50;1.90;;;;;;;18.03;62.42;98633.59;4994663;28;20222;-63
2023/07/31 05:52:39;;;;;;;5.90;1.80;;;;;;;18.10;62.75;98629.13;5006872;28;20234;-64
2023/07/31 05:55:08;;;;;;;5.87;2.17;;;;;;;18.19;62.42;98627.09;4999259;28;20223;-64
2023/07/31 05:57:34;;;;;;;5.60;2.10;;;;;;;18.36;62.47;98623.06;4996806;28;20229;-64
2023/07/31 06:00:02;;;;;;;3.23;1.50;;;;;;;18.52;63.46;98615.78;5002122;28;20276;-64
2023/07/31 06:02:33;;;;;;;3.93;1.73;;;;;;;18.66;62.09;98620.03;4996022;28;20301;-64
2023/07/31 06:05:00;;;;;;;8.60;2.00;;;;;;;18.57;60.27;98615.97;4998548;28;20242;-64
2023/07/31 06:07:27;;;;;;;7.27;2.30;;;;;;;18.70;60.09;98623.09;4985327;28;20320;-64
2023/07/31 06:09:55;;;;;;;6.13;2.20;;;;;;;18.69;59.90;98629.38;4993817;28;20253;-64
2023/07/31 06:12:22;;;;;;;4.07;1.93;;;;;;;18.69;59.93;98611.72;4992833;28;20262;-64
2023/07/31 06:14:52;;;;;;;5.80;1.87;;;;;;;18.78;61.40;98612.31;4995061;28;20860;-64
2023/07/31 06:17:21;;;;;;;6.57;1.97;;;;;;;18.84;60.29;98611.47;4989199;28;20286;-64
2023/07/31 06:19:47;;;;;;;5.97;2.07;;;;;;;18.90;59.15;98601.94;4996020;28;20604;-64
2023/07/31 06:22:14;;;;;;;5.17;1.90;;;;;;;19.11;59.00;98613.31;4988217;28;20235;-64
2023/07/31 06:24:40;;;;;;;9.80;2.10;;;;;;;19.14;60.05;98619.00;5002897;28;20388;-64
2023/07/31 06:27:07;;;;;;;9.00;2.63;;;;;;;19.10;60.08;98612.50;4996565;28;20238;-64
2023/07/31 06:29:34;;;;;;;6.57;2.13;;;;;;;19.05;59.04;98619.44;4991607;28;20709;-64
2023/07/31 06:32:01;;;;;;;4.23;1.90;;;;;;;19.01;58.86;98627.78;4992689;28;20721;-64
2023/07/31 06:34:29;;;;;;;3.87;1.57;;;;;;;19.06;58.29;98629.00;4993817;28;20228;-63
2023/07/31 06:36:56;;;;;;;5.23;1.97;;;;;;;18.97;58.94;98623.09;4994151;28;20234;-63
2023/07/31 06:39:23;;;;;;;5.43;1.70;;;;;;;19.01;57.73;98632.25;4987817;28;20230;-63
2023/07/31 06:41:49;;;;;;;4.53;1.67;;;;;;;18.91;57.73;98640.59;4994762;28;20800;-63
2023/07/31 06:44:16;;;;;;;6.13;2.20;;;;;;;19.07;58.44;98617.41;4991980;28;20233;-63
2023/07/31 06:46:43;;;;;;;3.27;1.77;;;;;;;19.30;58.14;98622.22;4993178;28;20242;-63
2023/07/31 06:49:10;;;;;;;7.80;2.00;;;;;;;19.54;57.16;98631.31;4995768;28;20227;-63
2023/07/31 06:51:38;;;;;;;4.90;1.83;;;;;;;19.69;55.65;98630.25;4994388;28;20250;-63
2023/07/31 06:54:04;;;;;;;7.10;2.10;;;;;;;19.58;57.03;98629.88;4994188;28;20281;-63
2023/07/31 06:56:31;;;;;;;4.83;2.00;;;;;;;19.57;57.82;98638.03;4987838;28;20237;-63
2023/07/31 06:58:58;;;;;;;6.47;2.13;;;;;;;19.70;56.61;98631.88;4993751;28;20237;-63
2023/07/31 07:01:24;;;;;;;6.87;1.83;;;;;;;19.61;56.05;98633.91;4987762;28;20250;-63
2023/07/31 07:03:51;;;;;;;4.37;2.03;;;;;;;19.66;56.35;98630.66;4992213;28;20241;-63
2023/07/31 07:06:18;;;;;;;6.17;1.73;;;;;;;19.63;57.24;98629.22;4989545;28;20291;-63
2023/07/31 07:08:46;;;;;;;7.33;2.33;;;;;;;19.74;55.54;98633.06;4993998;28;20265;-63
2023/07/31 07:11:13;;;;;;;5.67;2.03;;;;;;;19.76;55.38;98621.22;4988387;28;20714;-63
2023/07/31 07:13:40;;;;;;;7.13;1.80;;;;;;;20.04;56.13;98619.31;4995173;28;20556;-63
2023/07/31 07:16:06;;;;;;;7.47;1.90;;;;;;;20.10;55.84;98620.28;4991849;28;20228;-63
2023/07/31 07:18:33;;;;;;;7.33;2.00;;;;;;;20.09;53.43;98613.34;4989928;28;20239;-63
2023/07/31 07:21:02;;;;;;;5.50;2.07;;;;;;;20.05;54.58;98605.03;4994968;28;20236;-63
2023/07/31 07:23:29;;;;;;;5.50;2.07;;;;;;;20.40;53.01;98609.88;4992386;28;20681;-63
2023/07/31 07:25:57;;;;;;;4.83;1.80;;;;;;;20.44;55.31;98613.72;4995058;28;20223;-63
2023/07/31 07:28:23;;;;;;;6.87;2.00;;;;;;;20.35;54.01;98615.00;4999885;28;20232;-63
2023/07/31 07:30:53;;;;;;;5.60;1.90;;;;;;;20.73;52.70;98624.72;4995259;28;20235;-63
2023/07/31 07:33:20;;;;;;;8.10;1.70;;;;;;;20.78;52.00;98621.44;4991133;28;20301;-63
2023/07/31 07:35:46;;;;;;;7.17;2.37;;;;;;;21.03;52.12;98608.16;4995807;28;20248;-63
2023/07/31 07:38:14;;;;;;;5.60;2.13;;;;;;;21.43;49.76;98603.44;4989801;28;20456;-63
2023/07/31 07:40:41;;;;;;;6.43;1.80;;;;;;;21.02;51.50;98609.19;4993628;28;20675;-63
2023/07/31 07:43:09;;;;;;;4.80;2.20;;;;;;;20.97;51.71;98616.16;4994738;28;20238;-63
2023/07/31 07:45:35;;;;;;;10.43;2.23;;;;;;;20.63;52.62;98598.69;4999123;28;20244;-63
2023/07/31 07:48:02;;;;;;;4.37;1.90;;;;;;;21.08;53.84;98600.34;4995801;28;20247;-63
2023/07/31 07:50:28;;;;;;;9.00;2.30;;;;;;;20.83;52.54;98596.91;4992521;28;20233;-63
2023/07/31 07:52:55;;;;;;;6.77;2.10;;;;;;;20.79;52.88;98597.34;4993714;28;20718;-63
2023/07/31 07:55:22;;;;;;;5.63;2.70;;;;;;;20.87;52.58;98583.00;4986577;28;20706;-63
2023/07/31 07:57:50;;;;;;;7.20;1.90;;;;;;;20.81;53.36;98588.38;4993926;28;20225;-62
2023/07/31 08:00:18;;;;;;;6.30;2.00;;;;;;;21.05;53.06;98590.16;4991597;28;20246;-62
2023/07/31 08:02:44;;;;;;;6.17;1.90;;;;;;;20.87;53.18;98598.09;4992237;28;20770;-63
2023/07/31 08:05:11;;;;;;;8.40;2.20;;;;;;;21.36;54.20;98596.34;4993192;28;20229;-63
2023/07/31 08:07:38;;;;;;;7.03;2.27;;;;;;;21.41;51.66;98605.50;4986912;28;20687;-63
2023/07/31 08:10:05;;;;;;;5.20;1.90;;;;;;;21.53;52.50;98599.22;4991069;28;20228;-63
2023/07/31 08:12:31;;;;;;;7.43;2.20;;;;;;;21.72;51.82;98601.91;4989105;28;20240;-63
2023/07/31 08:14:59;;;;;;;9.43;2.23;;;;;;;21.63;52.14;98604.03;4991920;28;20237;-64
2023/07/31 08:17:31;;;;;;;7.10;1.90;;;;;;;21.74;52.27;98612.28;4989719;28;20919;-63
2023/07/31 08:19:58;;;;;;;4.13;1.90;;;;;;;21.85;51.57;98613.34;4993843;28;20238;-63
2023/07/31 08:22:25;;;;;;;11.33;2.20;;;;;;;21.82;54.04;98604.00;4990387;28;20274;-63
2023/07/31 08:24:55;;;;;;;5.73;1.67;;;;;;;22.15;51.50;98604.56;4993458;28;20235;-63
2023/07/31 08:27:22;;;;;;;8.37;2.03;;;;;;;22.07;52.93;98598.53;4989770;28;20241;-63
2023/07/31 08:29:53;;;;;;;11.20;2.63;;;;;;;21.93;52.52;98603.25;4994489;28;20323;-63
2023/07/31 08:32:19;;;;;;;6.13;2.23;;;;;;;22.25;51.68;98603.00;4991115;28;20588;-63
2023/07/31 08:34:47;;;;;;;7.53;1.93;;;;;;;22.35;50.46;98596.28;4998308;28;20237;-63
2023/07/31 08:37:14;;;;;;;5.90;2.03;;;;;;;22.52;53.26;98602.59;4983540;28;20238;-65
2023/07/31 08:39:40;;;;;;;6.97;2.17;;;;;;;22.43;49.54;98598.59;4993028;28;20241;-63
2023/07/31 08:42:08;;;;;;;6.07;2.10;;;;;;;22.62;51.58;98601.22;4999929;28;21004;-64
2023/07/31 08:44:36;;;;;;;8.43;1.73;;;;;;;22.78;49.80;98583.75;4987022;28;20248;-61
2023/07/31 08:47:03;;;;;;;5.20;2.17;;;;;;;23.04;49.46;98577.13;4989822;28;20232;-63
2023/07/31 08:49:31;;;;;;;5.77;2.07;;;;;;;22.90;50.55;98573.91;4990084;28;20228;-64
2023/07/31 08:51:59;;;;;;;6.53;1.80;;;;;;;23.31;51.09;98570.50;4993678;28;20236;-64
2023/07/31 08:54:29;;;;;;;9.17;2.23;;;;;;;22.75;51.50;98569.06;4989704;28;20223;-64
2023/07/31 08:56:57;;;;;;;12.10;2.10;;;;;;;23.39;52.49;98556.81;4990097;28;20314;-63
2023/07/31 08:59:25;;;;;;;6.33;1.93;;;;;;;23.64;50.90;98566.34;4990600;28;20231;-63
2023/07/31 09:01:55;;;;;;;6.17;2.00;;;;;;;23.06;49.63;98563.59;4992439;28;20248;-63
2023/07/31 09:04:23;;;;;;;4.57;1.87;;;;;;;23.31;47.15;98571.34;4988205;28;20228;-63
2023/07/31 09:06:52;;;;;;;14.53;2.20;;;;;;;23.13;49.69;98570.41;4994945;28;20232;-63
2023/07/31 09:09:20;;;;;;;4.67;2.00;;;;;;;22.36;48.52;98553.53;4985851;28;20220;-63
2023/07/31 09:11:47;;;;;;;12.97;2.00;;;;;;;22.54;51.53;98557.16;4988223;28;20254;-63
2023/07/31 09:14:16;;;;;;;3.87;1.90;;;;;;;22.68;49.71;98569.19;4989679;28;20255;-63
2023/07/31 09:16:53;;;;;;;6.80;2.10;;;;;;;22.54;51.40;98560.59;4990683;28;20591;-63
2023/07/31 09:19:26;;;;;;;10.00;2.30;;;;;;;22.98;49.91;98552.25;4987359;28;20320;-63
2023/07/31 09:21:52;;;;;;;4.70;1.67;;;;;;;23.50;50.41;98550.66;4993247;28;20242;-63
2023/07/31 09:24:28;;;;;;;5.63;2.10;;;;;;;23.83;47.59;98540.31;4990233;28;20219;-64
2023/07/31 09:26:55;;;;;;;5.43;2.20;;;;;;;24.07;47.48;98542.88;4992211;28;20576;-64
2023/07/31 09:29:21;;;;;;;4.90;1.93;;;;;;;23.54;47.00;98540.31;4993072;28;20232;-64
2023/07/31 09:31:48;;;;;;;4.47;1.90;;;;;;;23.24;49.61;98528.84;4988104;28;20228;-64
2023/07/31 09:34:15;;;;;;;5.63;1.90;;;;;;;23.70;48.03;98526.22;4988530;28;20695;-63
2023/07/31 09:36:43;;;;;;;6.60;2.40;;;;;;;23.90;46.43;98514.31;4992670;28;20236;-62
2023/07/31 09:39:11;;;;;;;9.70;2.00;;;;;;;23.69;47.28;98511.28;4992885;28;20240;-63
2023/07/31 09:41:39;;;;;;;4.77;2.30;;;;;;;23.71;46.16;98503.06;4987747;28;20236;-63
2023/07/31 09:44:06;;;;;;;6.07;2.13;;;;;;;24.01;47.97;98501.97;4995821;28;20239;-63
2023/07/31 09:46:32;;;;;;;19.47;2.77;;;;;;;24.40;47.11;98512.72;4992602;28;20232;-63
2023/07/31 09:49:07;;;;;;;10.20;2.20;;;;;;;24.07;47.24;98501.00;4996510;28;20696;-63
2023/07/31 09:51:38;;;;;;;6.07;1.97;;;;;;;24.02;46.17;98509.75;4990792;28;20242;-63
2023/07/31 09:54:09;;;;;;;9.43;2.60;;;;;;;23.52;47.30;98505.13;4995130;28;20249;-63
2023/07/31 09:56:37;;;;;;;7.83;1.73;;;;;;;23.41;47.48;98512.91;4991761;28;20236;-63
2023/07/31 09:59:05;;;;;;;5.57;2.03;;;;;;;23.31;49.71;98506.59;4996621;28;20238;-63
2023/07/31 10:01:33;;;;;;;5.77;2.17;;;;;;;22.88;48.96;98513.97;4990497;28;20570;-63
2023/07/31 10:04:01;;;;;;;6.17;2.30;;;;;;;22.93;49.09;98506.09;4994819;28;20238;-62
2023/07/31 10:06:28;;;;;;;6.23;2.33;;;;;;;22.76;49.07;98500.69;4991355;28;20704;-63
2023/07/31 10:08:55;;;;;;;4.50;2.10;;;;;;;23.14;49.66;98502.81;4991041;28;20239;-64
2023/07/31 10:11:25;;;;;;;6.00;1.97;;;;;;;23.48;47.84;98488.81;4990899;28;20234;-63
2023/07/31 10:13:53;;;;;;;12.13;2.97;;;;;;;23.45;48.77;98499.94;4994849;28;20231;-63
2023/07/31 10:16:22;;;;;;;17.30;6.97;;;;;;;23.78;49.15;98514.38;4990823;28;20236;-61
2023/07/31 10:18:51;;;;;;;14.17;6.27;;;;;;;23.38;47.76;98504.59;4995052;28;20251;-62
2023/07/31 10:21:18;;;;;;;38.07;14.77;;;;;;;23.23;50.22;98500.59;4992437;28;20258;-60
2023/07/31 10:23:46;;;;;;;11.80;4.47;;;;;;;22.76;50.83;98514.00;4996706;28;20326;-58
2023/07/31 10:26:15;;;;;;;7.43;3.07;;;;;;;23.34;48.97;98514.13;4991489;28;20238;-62
2023/07/31 10:28:43;;;;;;;5.13;2.30;;;;;;;23.48;49.21;98514.63;4995556;28;20583;-62
2023/07/31 10:31:10;;;;;;;30.53;12.60;;;;;;;23.23;51.71;98515.78;4993218;28;20578;-61
2023/07/31 10:33:39;;;;;;;17.97;7.37;;;;;;;22.83;50.95;98517.31;4991787;28;20228;-62
2023/07/31 10:36:16;;;;;;;6.80;3.37;;;;;;;22.60;49.96;98512.84;5004384;28;20230;-62
2023/07/31 10:38:43;;;;;;;7.83;2.40;;;;;;;23.18;49.83;98513.78;4993532;28;20556;-62
2023/07/31 10:41:10;;;;;;;5.50;2.40;;;;;;;24.11;49.70;98506.69;4995246;28;20223;-63
2023/07/31 10:43:37;;;;;;;4.47;1.87;;;;;;;24.58;47.06;98505.50;4995609;28;20241;-63
2023/07/31 10:46:08;;;;;;;5.10;1.70;;;;;;;25.07;45.26;98520.84;4992616;28;20230;-62
2023/07/31 10:48:36;;;;;;;5.67;1.77;;;;;;;24.60;43.99;98516.72;4990296;28;20245;-63
2023/07/31 10:51:11;;;;;;;6.33;2.23;;;;;;;24.20;46.17;98517.75;4987422;28;20229;-63
2023/07/31 10:53:40;;;;;;;4.93;2.07;;;;;;;23.68;47.65;98523.00;4981708;28;20724;-63
2023/07/31 10:56:08;;;;;;;4.80;2.27;;;;;;;23.53;48.83;98517.38;4996697;28;20242;-63
2023/07/31 10:58:35;;;;;;;6.17;2.27;;;;;;;24.07;45.93;98509.00;4992318;28;20222;-63
2023/07/31 11:01:04;;;;;;;4.80;2.20;;;;;;;24.08;48.12;98507.97;4994322;28;20325;-63
2023/07/31 11:03:44;;;;;;;6.07;2.27;;;;;;;23.98;48.44;98502.44;4990636;28;20227;-63
2023/07/31 11:06:13;;;;;;;7.37;2.03;;;;;;;24.57;47.20;98523.34;4970054;28;20254;-62
2023/07/31 11:08:43;;;;;;;6.17;1.97;;;;;;;24.57;49.33;98517.22;4986377;28;20236;-62
2023/07/31 11:11:11;;;;;;;5.93;1.93;;;;;;;24.21;48.09;98501.50;4995993;28;20245;-62
2023/07/31 11:13:43;;;;;;;4.10;2.10;;;;;;;23.51;49.04;98504.31;4993164;28;20675;-63
2023/07/31 11:16:10;;;;;;;7.00;2.10;;;;;;;24.48;48.35;98495.47;4987037;28;20607;-63
2023/07/31 11:18:39;;;;;;;5.30;2.37;;;;;;;24.91;48.54;98501.13;4993129;28;20236;-64
2023/07/31 11:21:06;;;;;;;5.53;2.13;;;;;;;24.85;47.41;98508.28;4996121;28;20238;-63
2023/07/31 11:23:34;;;;;;;8.83;2.37;;;;;;;24.57;47.90;98507.34;4993316;28;20288;-63
2023/07/31 11:26:09;;;;;;;5.77;2.03;;;;;;;23.71;49.05;98498.53;4994309;28;20639;-64
2023/07/31 11:28:36;;;;;;;6.93;2.03;;;;;;;23.94;48.89;98498.63;4994564;28;20690;-64
2023/07/31 11:31:03;;;;;;;6.77;2.40;;;;;;;23.66;49.80;98479.78;4997188;28;20243;-64
2023/07/31 11:33:30;;;;;;;3.57;1.63;;;;;;;23.59;48.24;98471.13;4978973;28;20234;-64
2023/07/31 11:35:57;;;;;;;7.00;2.40;;;;;;;23.38;51.32;98472.66;4996995;28;20276;-64
2023/07/31 11:38:26;;;;;;;9.23;2.37;;;;;;;23.87;49.51;98477.47;4956587;28;20238;-63
2023/07/31 11:40:55;;;;;;;6.67;2.27;;;;;;;24.04;50.79;98474.81;4998547;28;20524;-63
2023/07/31 11:43:22;;;;;;;4.43;1.90;;;;;;;24.78;48.81;98464.16;4941537;28;20231;-63